Terminal Aerodrome Forecast
Issued by NWS Amarillo, TX

Home | Current Version | Previous Version | Text Only | Print | Product List | Glossary On
Versions: 1 2 3 4 5 6 7 8 9 10 11 12 13 14 15 16 17
000
FTUS44 KAMA 050500
TAFGUY
TAF
KGUY 050520Z 0506/0606 15008KT P6SM BKN035 BKN080 OVC250
      TEMPO 0506/0510 5SM TSRA OVC015CB
     FM051000 15012KT 5SM SHRA OVC008
     FM051900 17018G27KT 5SM SHRA OVC015
     FM060200 16014KT P6SM OVC008=

USA.gov is the U.S. government's official web portal to all federal, state and local government web resources and services.